Port Alberni, British Columbia

Past 24 Hour Conditions

Date / Time
(PST)
Conditions Temp
(°F)
Humidity
(%)
Dew Point
(°F)
Wind
(mph)
Pressure
(inches)
Visibility
(miles)
27 November 2014
8:00 N/A 53   95 52 calm 29.6 N/A
7:00 N/A 53   94 51 calm 29.6 N/A
6:00 N/A 53   95 51 E 6 29.6 N/A
5:00 N/A 53   94 52 E 3 29.7 N/A
4:00 N/A 53   96 52 E 2 29.7 N/A
3:00 N/A 51 96 50 E 4 29.7 N/A
2:00 N/A 49 96 48 S 5 29.7 N/A
1:00 N/A 49 95 48 calm 29.7 N/A
00:00 N/A 52 94 51 NNE 2 29.7 N/A
26 November 2014
23:00 N/A 53   94 51 ESE 6 29.7 N/A
22:00 N/A 53   94 51 ENE 6 29.7 N/A
21:00 N/A 53   93 51 E 8 29.7 N/A
20:00 N/A 52 93 50 E 10 29.7 N/A
19:00 N/A 52 94 50 ESE 10 29.8 N/A
18:00 N/A 51 96 50 E 8 29.8 N/A
17:00 N/A 51 96 50 S 3 29.8 N/A
16:00 N/A 46 96 45 SW 3 29.9 N/A
15:00 N/A 46 95 45 calm 29.9 N/A
14:00 N/A 46 95 44 NNE 3 29.9 N/A
13:00 N/A 45 94 43 NNE 2 30.0 N/A
12:00 N/A 44 93 42 calm 30.0 N/A
11:00 N/A 43 94 42 NNW 2 30.0 N/A
10:00 N/A 43 95 41 calm 30.0 N/A
9:00 N/A 42 96 41 calm 30.0 N/A
8:00 N/A 41   96 40 calm 30.1 N/A
N/A Not available
↑ Highest temperature
↓ Lowest temperature

If you require additional historical weather information, please visit Climate Data Online.

Date modified: